Time;durP1;ratioP1;P1;durP2;ratioP2;P2;SDS_P1;SDS_P2;PMS_P1;PMS_P2;Temp;Humidity;BMP_temperature;BMP_pressure;BME280_temperature;BME280_humidity;BME280_pressure;Samples;Min_cycle;Max_cycle;Signal;HPM_P1;HPM_P2
2022/05/27 07:28:26;;;;;;;1.87;1.02;;;;;;;26.72;32.79;100703.34;6631583;26;128398;-90
2022/05/27 07:35:09;;;;;;;6.28;1.17;;;;;;;27.42;33.12;100686.38;6663231;26;20059;-90
2022/05/27 07:38:12;;;;;;;4.50;1.40;;;;;;;27.20;32.77;100688.03;6665196;26;34246;-90
2022/05/27 07:41:15;;;;;;;2.53;1.00;;;;;;;26.71;34.01;100687.19;6666462;26;33996;-91
2022/05/27 07:51:54;;;;;;;1.25;1.02;;;;;;;27.13;33.21;100686.03;6664868;26;20047;-89
2022/05/27 07:58:41;;;;;;;2.97;1.10;;;;;;;27.18;34.00;100680.03;6659178;26;20063;-88
2022/05/27 08:01:53;;;;;;;3.67;1.05;;;;;;;27.70;32.87;100667.63;6662806;26;34369;-89
2022/05/27 08:04:57;;;;;;;2.05;0.98;;;;;;;28.00;32.84;100677.75;6669870;26;34014;-88
2022/05/27 08:08:02;;;;;;;5.00;1.15;;;;;;;29.04;30.35;100672.56;6662513;26;33966;-88
2022/05/27 08:11:06;;;;;;;2.15;0.90;;;;;;;28.72;30.68;100666.47;6646950;26;33023;-88
2022/05/27 08:14:09;;;;;;;3.53;1.27;;;;;;;28.24;32.39;100670.41;6669443;26;33816;-89
2022/05/27 08:17:12;;;;;;;1.25;1.15;;;;;;;28.06;31.83;100673.47;6663756;26;34634;-89
2022/05/27 08:20:20;;;;;;;2.72;1.10;;;;;;;27.74;32.41;100670.00;6661499;26;34622;-89
2022/05/27 08:23:24;;;;;;;1.58;1.10;;;;;;;28.11;31.87;100676.47;6662331;26;33911;-89
2022/05/27 08:26:28;;;;;;;2.30;0.95;;;;;;;28.45;32.03;100669.66;6662278;26;33183;-88
2022/05/27 08:29:31;;;;;;;2.25;1.23;;;;;;;27.94;32.26;100676.63;6662220;26;33840;-89
2022/05/27 08:32:34;;;;;;;1.55;0.93;;;;;;;27.60;32.85;100655.28;6660621;26;33888;-88
2022/05/27 08:38:58;;;;;;;4.50;1.23;;;;;;;28.04;32.49;100661.88;6664289;26;35239;-88
2022/05/27 08:42:26;;;;;;;1.20;1.10;;;;;;;28.22;32.12;100656.94;6661812;26;33909;-87
2022/05/27 08:45:36;;;;;;;5.28;1.50;;;;;;;28.46;32.06;100656.88;6659850;26;33573;-89
2022/05/27 08:48:42;;;;;;;8.55;2.03;;;;;;;29.14;30.68;100645.81;6659710;26;34285;-88
2022/05/27 08:52:07;;;;;;;7.55;1.50;;;;;;;29.93;30.23;100643.19;6665838;26;33696;-88
2022/05/27 09:03:04;;;;;;;4.47;1.50;;;;;;;29.56;30.20;100626.91;6662285;26;34991;-89
2022/05/27 09:06:20;;;;;;;9.65;1.37;;;;;;;29.03;30.74;100638.97;6661627;26;33607;-89
2022/05/27 09:09:31;;;;;;;12.05;1.45;;;;;;;28.90;30.69;100622.41;6675182;26;33432;-89
2022/05/27 09:16:41;;;;;;;14.35;1.62;;;;;;;28.61;31.78;100619.50;6669526;26;20039;-89
2022/05/27 09:30:50;;;;;;;4.80;1.67;;;;;;;31.62;27.63;100602.84;6657470;26;33964;-89
2022/05/27 09:33:54;;;;;;;6.82;1.00;;;;;;;33.22;26.38;100593.50;6666919;26;33613;-89
2022/05/27 09:37:02;;;;;;;1.40;1.05;;;;;;;33.53;25.27;100590.97;6669875;26;34656;-90
2022/05/27 09:40:13;;;;;;;7.53;1.90;;;;;;;32.92;25.48;100588.56;6663359;26;34397;-89
2022/05/27 09:43:44;;;;;;;3.90;1.20;;;;;;;33.32;25.18;100579.25;6663453;26;34320;-90
2022/05/27 09:46:47;;;;;;;6.07;1.75;;;;;;;32.88;25.27;100585.44;6662945;26;33865;-89
2022/05/27 09:50:03;;;;;;;2.87;1.20;;;;;;;33.29;25.98;100577.78;6667223;26;34236;-89
2022/05/27 09:57:16;;;;;;;34.70;2.10;;;;;;;32.70;26.04;100557.84;6664388;26;20035;-90
2022/05/27 10:00:36;;;;;;;5.80;1.20;;;;;;;31.50;27.53;100566.16;6667860;26;34173;-90
2022/05/27 10:03:46;;;;;;;7.65;1.87;;;;;;;32.54;26.67;100568.31;6671194;26;34754;-90
2022/05/27 10:07:02;;;;;;;7.80;1.55;;;;;;;32.18;26.97;100567.75;6670211;26;34541;-90
2022/05/27 10:10:43;;;;;;;4.12;1.60;;;;;;;31.88;27.87;100565.53;6669921;26;34574;-89
2022/05/27 10:25:20;;;;;;;11.50;1.40;;;;;;;29.04;31.17;100534.16;6671858;26;20051;-88
2022/05/27 10:32:07;;;;;;;15.05;1.30;;;;;;;31.71;26.78;100535.78;6659225;26;20066;-87
2022/05/27 10:39:06;;;;;;;10.60;1.40;;;;;;;31.44;26.84;100516.62;6664041;26;20174;-87
2022/05/27 10:43:01;;;;;;;4.10;1.37;;;;;;;30.99;27.25;100503.53;6640835;26;32613;-88
2022/05/27 10:46:19;;;;;;;7.30;1.42;;;;;;;31.00;27.57;100507.09;6546213;26;33917;-88
2022/05/27 10:49:32;;;;;;;9.80;1.90;;;;;;;29.51;29.89;100497.38;6672616;26;34169;-87
2022/05/27 11:04:20;;;;;;;5.03;1.35;;;;;;;30.77;28.08;100475.47;6656269;26;20090;-87
2022/05/27 11:07:43;;;;;;;3.42;1.00;;;;;;;31.33;27.26;100479.72;6663395;26;34029;-87
2022/05/27 11:34:28;;;;;;;7.97;1.70;;;;;;;30.32;29.86;100424.81;6656191;26;20062;-88
2022/05/27 11:38:05;;;;;;;4.10;1.40;;;;;;;30.03;30.55;100417.75;6664338;26;34027;-90
2022/05/27 12:05:02;;;;;;;5.12;1.65;;;;;;;27.91;34.22;100381.78;6674579;26;20039;-88
2022/05/27 12:08:20;;;;;;;6.55;1.30;;;;;;;27.75;34.87;100378.22;6632177;26;35070;-90
2022/05/27 12:11:37;;;;;;;6.37;1.60;;;;;;;28.26;33.97;100373.81;6662787;26;33939;-87
2022/05/27 12:14:46;;;;;;;4.30;1.92;;;;;;;28.71;33.45;100349.03;6663878;26;34620;-87
2022/05/27 12:17:52;;;;;;;6.18;1.80;;;;;;;28.93;33.66;100351.78;6677214;26;34243;-87
2022/05/27 12:20:56;;;;;;;2.65;1.60;;;;;;;28.84;32.75;100342.00;6678270;26;34084;-87
2022/05/27 12:24:06;;;;;;;4.62;1.80;;;;;;;28.60;33.40;100338.69;6653251;26;33310;-87
2022/05/27 12:27:14;;;;;;;3.67;1.70;;;;;;;28.58;34.52;100338.00;6674053;26;33893;-87
2022/05/27 12:30:19;;;;;;;2.53;1.35;;;;;;;28.30;34.64;100325.19;6678779;26;34191;-87
2022/05/27 12:33:26;;;;;;;2.83;1.35;;;;;;;29.00;33.45;100329.97;6676952;26;34956;-89
2022/05/27 12:36:30;;;;;;;2.42;1.62;;;;;;;28.81;33.64;100326.84;6662626;26;34201;-87
2022/05/27 12:39:33;;;;;;;3.50;1.65;;;;;;;28.30;34.26;100317.00;6664269;26;34144;-87
2022/05/27 12:42:39;;;;;;;3.50;1.70;;;;;;;28.27;34.77;100310.06;6643595;26;33709;-88
2022/05/27 12:45:45;;;;;;;3.42;1.70;;;;;;;28.50;33.81;100304.38;6662670;26;33998;-88
2022/05/27 12:48:49;;;;;;;4.03;1.75;;;;;;;28.17;35.00;100301.31;6663389;26;33886;-88
2022/05/27 12:51:53;;;;;;;5.37;1.90;;;;;;;27.89;35.46;100293.88;6662304;26;33829;-88
2022/05/27 12:54:59;;;;;;;6.87;1.83;;;;;;;28.23;35.72;100297.84;6661611;26;34015;-88
2022/05/27 13:01:27;;;;;;;3.97;1.58;;;;;;;28.61;34.66;100289.34;6664092;26;34724;-88
2022/05/27 13:04:50;;;;;;;2.65;1.58;;;;;;;29.18;33.47;100280.31;6664888;26;33871;-89
2022/05/27 13:08:09;;;;;;;3.92;1.80;;;;;;;28.92;34.05;100273.66;6665605;26;33983;-92
2022/05/27 13:11:22;;;;;;;2.33;1.63;;;;;;;28.29;35.06;100266.19;6643271;26;32541;-89
2022/05/27 13:14:41;;;;;;;6.47;1.95;;;;;;;28.44;35.34;100266.12;6663962;26;34063;-89
2022/05/27 13:17:49;;;;;;;2.75;1.80;;;;;;;27.68;36.73;100251.97;6664392;26;34516;-88
2022/05/27 13:24:46;;;;;;;6.15;1.92;;;;;;;28.50;35.30;100238.06;6660587;26;20616;-89
2022/05/27 13:27:56;;;;;;;2.40;1.62;;;;;;;28.70;34.96;100238.19;6648914;26;32496;-90
2022/05/27 13:53:29;;;;;;;2.60;1.60;;;;;;;28.47;35.45;100197.53;6663832;26;20059;-89
2022/05/27 13:56:38;;;;;;;6.05;1.92;;;;;;;28.70;34.92;100188.25;6668377;26;34529;-88
2022/05/27 13:59:47;;;;;;;2.85;1.55;;;;;;;28.86;35.04;100178.91;6643775;26;35394;-88
2022/05/27 14:02:52;;;;;;;4.47;1.80;;;;;;;28.74;34.52;100186.78;6668802;26;33895;-87
2022/05/27 14:06:01;;;;;;;4.45;1.60;;;;;;;28.27;35.68;100173.72;6649511;26;34269;-87
2022/05/27 14:09:16;;;;;;;4.70;1.80;;;;;;;28.28;35.42;100167.22;6657663;26;34677;-88
2022/05/27 14:12:20;;;;;;;5.35;1.62;;;;;;;28.37;35.17;100160.53;6655717;26;35286;-87
2022/05/27 14:15:31;;;;;;;4.20;1.90;;;;;;;27.88;36.18;100162.25;6664354;26;34279;-88
2022/05/27 14:18:35;;;;;;;4.20;1.85;;;;;;;27.89;36.09;100161.19;6658005;26;33880;-88
2022/05/27 14:25:01;;;;;;;4.30;1.80;;;;;;;28.38;35.83;100154.06;6674872;26;34396;-90
2022/05/27 14:31:43;;;;;;;4.25;1.77;;;;;;;28.15;35.51;100145.28;6663663;26;20032;-87
2022/05/27 14:34:49;;;;;;;5.37;1.80;;;;;;;27.52;37.43;100141.34;6664895;26;34334;-88
2022/05/27 14:38:05;;;;;;;4.57;1.67;;;;;;;26.91;38.51;100137.94;6664279;26;35104;-88
2022/05/27 14:41:20;;;;;;;1.90;1.70;;;;;;;26.82;38.64;100130.88;6662750;26;33870;-88
2022/05/27 14:44:28;;;;;;;4.78;2.03;;;;;;;27.12;38.46;100130.84;6666895;26;33870;-87
2022/05/27 14:47:32;;;;;;;2.05;1.92;;;;;;;27.52;37.69;100128.56;6669399;26;34381;-87
2022/05/27 14:50:35;;;;;;;3.20;1.67;;;;;;;27.66;37.17;100117.81;6642827;26;32528;-87
2022/05/27 14:53:38;;;;;;;4.32;1.65;;;;;;;27.77;36.77;100102.81;6643847;26;32611;-87
2022/05/27 14:56:41;;;;;;;2.50;1.77;;;;;;;27.77;36.97;100098.22;6664464;26;33651;-87
2022/05/27 14:59:52;;;;;;;4.30;1.85;;;;;;;27.73;36.96;100094.19;6663732;26;34998;-87
2022/05/27 15:02:58;;;;;;;4.45;1.70;;;;;;;28.04;36.52;100090.25;6666287;26;34195;-88
2022/05/27 15:06:13;;;;;;;1.65;1.48;;;;;;;28.17;36.56;100088.66;6644278;26;34617;-88
2022/05/27 15:09:15;;;;;;;2.95;1.70;;;;;;;27.93;36.17;100096.25;6663504;26;34770;-87
2022/05/27 15:12:26;;;;;;;1.65;1.45;;;;;;;27.54;37.08;100085.63;6672631;26;34262;-87
2022/05/27 15:15:41;;;;;;;6.03;1.70;;;;;;;27.73;37.16;100088.75;6647501;26;32930;-87
2022/05/27 15:19:14;;;;;;;2.95;2.00;;;;;;;26.97;38.41;100090.06;6650662;26;32471;-87
2022/05/27 15:22:57;;;;;;;3.80;1.90;;;;;;;26.54;39.37;100079.91;6647063;26;20071;-87
2022/05/27 15:33:27;;;;;;;3.75;1.80;;;;;;;27.24;38.60;100071.28;6576612;26;34898;-87
